createdAt,value
2022-12-13T00:00:07.340Z,1006.55
2022-12-13T00:01:07.326Z,1006.58
2022-12-13T00:02:07.440Z,1006.56
2022-12-13T00:03:07.294Z,1006.58
2022-12-13T00:04:07.299Z,1006.54
2022-12-13T00:05:07.369Z,1006.51
2022-12-13T00:06:07.261Z,1006.50
2022-12-13T00:07:07.286Z,1006.50
2022-12-13T00:08:07.278Z,1006.49
2022-12-13T00:09:07.228Z,1006.47
2022-12-13T00:10:07.213Z,1006.48
2022-12-13T00:11:07.211Z,1006.46
2022-12-13T00:12:07.203Z,1006.48
2022-12-13T00:13:07.200Z,1006.47
2022-12-13T00:14:07.180Z,1006.46
2022-12-13T00:15:07.180Z,1006.46
2022-12-13T00:16:07.190Z,1006.45
2022-12-13T00:17:07.152Z,1006.44
2022-12-13T00:18:07.146Z,1006.47
2022-12-13T00:19:07.118Z,1006.46
2022-12-13T00:20:07.100Z,1006.44
2022-12-13T00:21:07.117Z,1006.47
2022-12-13T00:22:07.091Z,1006.50
2022-12-13T00:23:07.102Z,1006.49
2022-12-13T00:24:07.070Z,1006.49
2022-12-13T00:25:07.061Z,1006.52
2022-12-13T00:26:07.047Z,1006.53
2022-12-13T00:27:07.048Z,1006.49
2022-12-13T00:28:07.024Z,1006.50
2022-12-13T00:29:07.035Z,1006.48
2022-12-13T00:30:07.001Z,1006.49
2022-12-13T00:31:34.205Z,1006.47
2022-12-13T00:32:08.016Z,1006.51
2022-12-13T00:33:06.975Z,1006.50
2022-12-13T00:34:06.956Z,1006.51
2022-12-13T00:35:06.951Z,1006.52
2022-12-13T00:36:06.947Z,1006.49
2022-12-13T00:37:06.955Z,1006.49
2022-12-13T00:38:06.924Z,1006.52
2022-12-13T00:39:06.936Z,1006.50
2022-12-13T00:40:06.917Z,1006.49
2022-12-13T00:41:06.874Z,1006.48
2022-12-13T00:42:06.864Z,1006.49
2022-12-13T07:49:02.086Z,1006.09
2022-12-13T07:50:01.906Z,1006.11
2022-12-13T07:51:01.570Z,1006.05
2022-12-13T07:52:01.566Z,1006.02
2022-12-13T07:53:01.547Z,1006.05
2022-12-13T07:54:06.828Z,1006.05
2022-12-13T07:55:02.565Z,1006.00
2022-12-13T07:56:01.534Z,1005.99
2022-12-13T07:57:04.497Z,1005.99
2022-12-13T07:58:01.498Z,1005.99
2022-12-13T07:59:01.512Z,1005.95
2022-12-13T08:00:01.510Z,1005.95
2022-12-13T08:01:01.487Z,1005.96
2022-12-13T08:02:01.843Z,1005.91
2022-12-13T08:03:01.468Z,1005.86
2022-12-13T08:04:01.455Z,1005.84
2022-12-13T08:05:26.015Z,1005.81
2022-12-13T08:06:02.607Z,1005.88
2022-12-13T08:07:01.437Z,1005.90
2022-12-13T08:08:01.414Z,1005.93
2022-12-13T08:09:01.378Z,1005.92
2022-12-13T08:10:01.422Z,1005.90
2022-12-13T08:11:01.368Z,1005.92
2022-12-13T08:12:01.372Z,1005.86
2022-12-13T08:13:01.346Z,1005.91
2022-12-13T08:14:01.325Z,1005.94
2022-12-13T08:15:01.325Z,1005.94
2022-12-13T08:16:01.374Z,1005.94
2022-12-13T08:17:01.312Z,1005.90
2022-12-13T08:18:01.280Z,1005.93
2022-12-13T08:19:04.348Z,1005.96
2022-12-13T08:20:01.256Z,1005.95
2022-12-13T08:21:01.291Z,1005.96
2022-12-13T08:22:02.197Z,1006.01
2022-12-13T08:23:02.261Z,1006.01
2022-12-13T08:24:01.226Z,1005.97
2022-12-13T08:25:01.200Z,1005.98
2022-12-13T08:26:01.205Z,1006.03
2022-12-13T08:27:01.685Z,1006.00
2022-12-13T08:28:01.329Z,1005.99
2022-12-13T08:29:01.166Z,1006.02
2022-12-13T08:30:01.148Z,1006.03
2022-12-13T08:31:01.239Z,1006.03
2022-12-13T08:32:01.704Z,1006.04
2022-12-13T08:33:05.009Z,1006.04
2022-12-13T08:34:01.103Z,1006.05
2022-12-13T08:35:01.087Z,1006.05
2022-12-13T08:36:01.112Z,1006.02
2022-12-13T08:37:01.534Z,1006.04
2022-12-13T08:38:01.230Z,1006.06
2022-12-13T08:39:01.042Z,1006.06
2022-12-13T08:40:01.062Z,1006.06
2022-12-13T08:41:01.044Z,1006.11
2022-12-13T08:42:01.014Z,1006.08
2022-12-13T08:43:02.017Z,1006.08
2022-12-13T08:44:01.013Z,1006.07
2022-12-13T08:45:00.994Z,1006.07
2022-12-13T08:46:01.345Z,1006.07
2022-12-13T08:47:01.068Z,1006.03
2022-12-13T08:48:00.948Z,1006.03
2022-12-13T08:49:00.984Z,1006.04
2022-12-13T08:50:02.572Z,1006.07
2022-12-13T08:51:00.914Z,1006.06
2022-12-13T08:52:00.938Z,1006.06
2022-12-13T08:53:00.908Z,1006.10
2022-12-13T08:54:10.374Z,1006.10
2022-12-13T08:55:01.881Z,1006.05
2022-12-13T08:56:00.858Z,1006.07
2022-12-13T08:57:00.861Z,1006.09
2022-12-13T08:58:01.114Z,1006.09
2022-12-13T08:59:00.827Z,1006.06
2022-12-13T09:00:00.816Z,1006.05
2022-12-13T09:01:00.895Z,1006.04
2022-12-13T09:02:04.987Z,1006.06
2022-12-13T09:03:00.789Z,1006.06
2022-12-13T09:04:00.807Z,1006.05
2022-12-13T09:05:00.759Z,1006.05
2022-12-13T09:06:00.767Z,1006.05
2022-12-13T09:07:01.566Z,1006.06
2022-12-13T09:08:00.815Z,1006.08
2022-12-13T09:09:03.580Z,1006.09
2022-12-13T09:10:25.792Z,1006.09
2022-12-13T09:11:11.383Z,1006.12
2022-12-13T09:12:01.687Z,1006.10
2022-12-13T09:13:02.459Z,1006.14
2022-12-13T09:14:01.833Z,1006.11
2022-12-13T09:15:01.369Z,1006.16
2022-12-13T09:16:01.426Z,1006.05
2022-12-13T09:17:02.712Z,1006.07
2022-12-13T09:18:05.196Z,1006.10
2022-12-13T09:19:01.618Z,1006.07
2022-12-13T09:20:01.699Z,1006.12
2022-12-13T09:21:10.742Z,1006.12
2022-12-13T09:22:02.605Z,1006.11
2022-12-13T09:23:02.365Z,1006.06
2022-12-13T09:24:02.036Z,1006.01
2022-12-13T09:25:02.377Z,1006.02
2022-12-13T09:26:05.240Z,1006.05
2022-12-13T09:27:01.527Z,1006.06
2022-12-13T09:28:00.540Z,1006.06
2022-12-13T09:29:11.242Z,1006.01
2022-12-13T09:30:01.600Z,1006.01
2022-12-13T09:31:00.473Z,1006.02
2022-12-13T09:32:00.582Z,1006.02
2022-12-13T09:33:29.111Z,1006.02
2022-12-13T09:34:01.459Z,1006.05
2022-12-13T09:35:00.432Z,1006.04
2022-12-13T09:36:01.744Z,1006.07
2022-12-13T09:37:01.505Z,1006.10
2022-12-13T09:38:00.414Z,1006.13
2022-12-13T09:39:00.409Z,1006.10
2022-12-13T09:40:00.378Z,1006.17
2022-12-13T09:41:01.366Z,1006.19
2022-12-13T09:42:01.278Z,1006.17
2022-12-13T09:43:13.276Z,1006.16
2022-12-13T09:44:01.378Z,1006.15
2022-12-13T09:45:01.087Z,1006.10
2022-12-13T09:46:01.314Z,1006.09
2022-12-13T09:47:01.092Z,1006.08
2022-12-13T09:48:01.349Z,1006.07
2022-12-13T09:49:01.615Z,1006.07
2022-12-13T09:50:00.303Z,1006.09
2022-12-13T09:51:18.030Z,1006.04
2022-12-13T09:52:11.228Z,1006.12
2022-12-13T09:53:01.366Z,1006.08
2022-12-13T09:54:00.235Z,1006.06
2022-12-13T09:55:00.218Z,1006.06
2022-12-13T09:56:10.384Z,1006.06
2022-12-13T09:57:01.182Z,1006.10
2022-12-13T09:58:00.186Z,1006.11
2022-12-13T09:59:00.190Z,1006.15
2022-12-13T10:00:01.802Z,1006.19
2022-12-13T10:01:00.194Z,1006.20
2022-12-13T10:02:00.167Z,1006.20
2022-12-13T10:03:00.132Z,1006.19
2022-12-13T10:04:00.132Z,1006.19
2022-12-13T10:05:00.739Z,1006.16
2022-12-13T10:06:00.092Z,1006.14
2022-12-13T10:07:00.088Z,1006.13
2022-12-13T10:08:00.102Z,1006.09
2022-12-13T10:09:00.085Z,1006.08
2022-12-13T10:10:00.040Z,1006.04
2022-12-13T10:11:00.025Z,1006.05
2022-12-13T10:12:00.042Z,1006.02
2022-12-13T10:13:00.013Z,1005.98
2022-12-13T10:14:01.679Z,1005.95
2022-12-13T10:14:59.978Z,1005.94
2022-12-13T10:16:00.075Z,1005.94
2022-12-13T10:17:00.004Z,1005.86
2022-12-13T10:17:59.963Z,1005.81
2022-12-13T10:18:59.948Z,1005.81
2022-12-13T10:19:59.943Z,1005.85
2022-12-13T10:20:59.926Z,1005.77
2022-12-13T10:22:02.054Z,1005.79
2022-12-13T10:24:24.653Z,1005.69
2022-12-13T10:25:00.922Z,1005.64
2022-12-13T10:26:02.855Z,1005.59
2022-12-13T10:26:59.844Z,1005.57
2022-12-13T10:27:59.851Z,1005.54
2022-12-13T10:28:59.835Z,1005.58
2022-12-13T10:29:59.823Z,1005.58
2022-12-13T10:30:59.803Z,1005.58
2022-12-13T10:31:59.872Z,1005.60
2022-12-13T10:32:59.781Z,1005.58
2022-12-13T10:33:59.764Z,1005.55
2022-12-13T10:34:59.776Z,1005.53
2022-12-13T10:35:59.760Z,1005.52
2022-12-13T10:37:00.113Z,1005.50
2022-12-13T10:37:59.739Z,1005.53
2022-12-13T10:38:59.714Z,1005.55
2022-12-13T10:39:59.745Z,1005.51
2022-12-13T10:41:01.073Z,1005.59
2022-12-13T10:41:59.677Z,1005.55
2022-12-13T10:42:59.671Z,1005.54
2022-12-13T10:43:59.654Z,1005.49
2022-12-13T10:44:59.664Z,1005.47
2022-12-13T10:45:59.707Z,1005.46
2022-12-13T10:46:59.642Z,1005.40
2022-12-13T10:48:03.978Z,1005.43
2022-12-13T10:48:59.617Z,1005.34
2022-12-13T10:49:59.796Z,1005.36
2022-12-13T10:50:59.669Z,1005.31
2022-12-13T10:51:59.564Z,1005.34
2022-12-13T10:52:59.560Z,1005.30
2022-12-13T10:53:59.544Z,1005.30
2022-12-13T10:55:01.463Z,1005.24
2022-12-13T10:56:02.269Z,1005.23
2022-12-13T10:56:59.535Z,1005.23
2022-12-13T10:57:59.510Z,1005.25
2022-12-13T10:58:59.502Z,1005.19
2022-12-13T10:59:59.492Z,1005.16
2022-12-13T11:00:59.547Z,1005.21
2022-12-13T11:01:59.534Z,1005.16
2022-12-13T11:02:59.445Z,1005.10
2022-12-13T11:04:02.391Z,1005.09
2022-12-13T11:04:59.434Z,1005.09
2022-12-13T11:05:59.418Z,1005.04
2022-12-13T11:06:59.398Z,1005.05
2022-12-13T11:08:00.869Z,1005.04
2022-12-13T11:09:01.571Z,1005.04
2022-12-13T11:10:05.416Z,1005.03
2022-12-13T11:11:00.372Z,1004.96
2022-12-13T11:11:59.359Z,1004.93
2022-12-13T11:12:59.344Z,1004.89
2022-12-13T11:13:59.314Z,1004.90
2022-12-13T11:14:59.306Z,1004.86
2022-12-13T11:15:59.308Z,1004.88
2022-12-13T11:16:59.340Z,1004.92
2022-12-13T11:17:59.273Z,1004.89
2022-12-13T11:18:59.302Z,1004.92
2022-12-13T11:19:59.253Z,1004.86
2022-12-13T11:20:59.254Z,1004.83
2022-12-13T11:21:59.235Z,1004.84
2022-12-13T11:22:59.232Z,1004.81
2022-12-13T11:24:01.579Z,1004.91
2022-12-13T11:24:59.195Z,1004.89
2022-12-13T11:25:59.216Z,1004.86
2022-12-13T11:26:59.187Z,1004.84
2022-12-13T11:27:59.192Z,1004.81
2022-12-13T11:28:59.178Z,1004.78
2022-12-13T11:29:59.157Z,1004.79
2022-12-13T11:31:01.435Z,1004.75
2022-12-13T11:31:59.179Z,1004.74
2022-12-13T11:32:59.507Z,1004.73
2022-12-13T11:33:59.089Z,1004.73
2022-12-13T11:34:59.095Z,1004.72
2022-12-13T11:35:59.068Z,1004.69
2022-12-13T11:36:59.087Z,1004.72
2022-12-13T11:37:59.044Z,1004.73
2022-12-13T11:38:59.037Z,1004.67
2022-12-13T11:40:01.059Z,1004.63
2022-12-13T11:40:59.025Z,1004.69
2022-12-13T11:41:59.013Z,1004.66
2022-12-13T11:42:59.006Z,1004.68
2022-12-13T11:43:59.018Z,1004.66
2022-12-13T11:44:58.980Z,1004.67
2022-12-13T11:45:59.017Z,1004.59
2022-12-13T11:46:58.990Z,1004.63
2022-12-13T11:47:58.945Z,1004.62
2022-12-13T11:48:58.934Z,1004.58
2022-12-13T11:49:58.905Z,1004.57
2022-12-13T11:50:58.902Z,1004.57
2022-12-13T11:51:58.915Z,1004.56
2022-12-13T11:52:58.888Z,1004.58
2022-12-13T11:53:58.882Z,1004.53
2022-12-13T11:54:58.876Z,1004.55
2022-12-13T11:55:58.838Z,1004.61
2022-12-13T11:57:00.302Z,1004.62
2022-12-13T11:57:58.822Z,1004.58
2022-12-13T11:59:04.710Z,1004.57
2022-12-13T12:00:01.991Z,1004.57
2022-12-13T12:00:58.787Z,1004.55
2022-12-13T12:02:04.892Z,1004.57
2022-12-13T12:02:59.948Z,1004.61
2022-12-13T12:03:58.821Z,1004.53
2022-12-13T12:05:01.122Z,1004.49
2022-12-13T12:05:58.729Z,1004.52
2022-12-13T12:07:12.163Z,1004.45
2022-12-13T12:08:31.634Z,1004.42
2022-12-13T12:08:59.706Z,1004.45
2022-12-13T12:09:58.677Z,1004.42
2022-12-13T12:10:58.674Z,1004.44
2022-12-13T12:11:58.670Z,1004.42
2022-12-13T12:12:58.681Z,1004.44
2022-12-13T12:13:58.633Z,1004.42
2022-12-13T12:14:58.643Z,1004.44
2022-12-13T12:15:59.692Z,1004.42
2022-12-13T12:16:58.615Z,1004.40
2022-12-13T12:17:58.620Z,1004.35
2022-12-13T12:19:01.581Z,1004.36
2022-12-13T12:19:58.655Z,1004.34
2022-12-13T12:20:58.561Z,1004.36
2022-12-13T12:22:14.274Z,1004.33
2022-12-13T12:22:59.565Z,1004.39
2022-12-13T12:23:58.537Z,1004.33
2022-12-13T12:24:58.527Z,1004.35
2022-12-13T12:25:58.500Z,1004.37
2022-12-13T12:26:58.504Z,1004.42
2022-12-13T12:27:58.504Z,1004.41
2022-12-13T12:29:01.401Z,1004.42
2022-12-13T12:29:58.472Z,1004.35
2022-12-13T12:30:58.513Z,1004.30
2022-12-13T12:31:58.463Z,1004.32
2022-12-13T12:32:58.467Z,1004.29
2022-12-13T12:33:58.451Z,1004.29
2022-12-13T12:34:58.399Z,1004.27
2022-12-13T12:35:58.395Z,1004.29
2022-12-13T12:36:58.391Z,1004.24
2022-12-13T12:37:58.367Z,1004.28
2022-12-13T12:38:58.381Z,1004.22
2022-12-13T12:39:58.341Z,1004.26
2022-12-13T12:42:00.377Z,1004.25
2022-12-13T12:43:14.387Z,1004.22
2022-12-13T12:43:59.321Z,1004.20
2022-12-13T12:44:58.299Z,1004.17
2022-12-13T12:45:58.335Z,1004.20
2022-12-13T12:47:19.196Z,1004.14
2022-12-13T12:48:46.382Z,1004.14
2022-12-13T12:49:02.378Z,1004.12
2022-12-13T12:49:58.252Z,1004.11
2022-12-13T12:50:58.218Z,1004.12
2022-12-13T12:51:58.203Z,1004.12
2022-12-13T12:52:58.212Z,1004.13
2022-12-13T12:53:58.210Z,1004.14
2022-12-13T12:54:58.186Z,1004.11
2022-12-13T12:55:58.182Z,1004.14
2022-12-13T12:56:58.174Z,1004.15
2022-12-13T12:57:58.137Z,1004.09
2022-12-13T12:58:58.172Z,1004.14
2022-12-13T13:00:01.440Z,1004.09
2022-12-13T13:00:58.104Z,1004.09
2022-12-13T13:01:58.107Z,1004.10
2022-12-13T13:02:58.169Z,1004.04
2022-12-13T13:04:01.694Z,1004.06
2022-12-13T13:04:58.086Z,1003.99
2022-12-13T13:06:01.884Z,1003.97
2022-12-13T13:07:01.806Z,1003.93
2022-12-13T13:07:58.026Z,1003.87
2022-12-13T13:08:58.029Z,1003.95
2022-12-13T13:09:58.031Z,1003.98
2022-12-13T13:11:01.925Z,1003.99
2022-12-13T13:11:58.154Z,1004.00
2022-12-13T13:13:12.230Z,1004.00
2022-12-13T13:14:01.794Z,1004.02
2022-12-13T13:14:57.975Z,1004.06
2022-12-13T13:15:58.021Z,1004.09
2022-12-13T13:16:57.943Z,1004.12
2022-12-13T13:17:57.913Z,1004.10
2022-12-13T13:18:57.917Z,1004.06
2022-12-13T13:20:09.637Z,1004.05
2022-12-13T13:20:58.931Z,1004.02
2022-12-13T13:22:01.760Z,1004.02
2022-12-13T13:23:31.977Z,1004.01
2022-12-13T13:23:58.857Z,1004.01
2022-12-13T13:24:57.872Z,1004.01
2022-12-13T13:26:23.827Z,1004.07
2022-12-13T13:26:58.817Z,1004.09
2022-12-13T13:27:57.819Z,1004.07
2022-12-13T13:28:57.805Z,1004.11
2022-12-13T13:29:57.803Z,1004.13
2022-12-13T13:30:57.838Z,1004.10
2022-12-13T13:32:01.564Z,1004.11
2022-12-13T13:32:57.763Z,1004.09
2022-12-13T13:33:57.744Z,1004.15
2022-12-13T13:35:00.609Z,1004.09
2022-12-13T13:35:57.764Z,1004.08
2022-12-13T13:36:57.715Z,1004.08
2022-12-13T13:37:58.325Z,1004.08
2022-12-13T13:39:01.229Z,1004.08
2022-12-13T13:39:58.293Z,1004.05
2022-12-13T13:40:57.666Z,1004.04
2022-12-13T13:41:57.662Z,1004.01
2022-12-13T13:42:57.647Z,1004.00
2022-12-13T13:43:57.634Z,1004.03
2022-12-13T13:44:57.612Z,1004.04
2022-12-13T13:45:57.706Z,1004.03
2022-12-13T13:46:57.606Z,1004.01
2022-12-13T13:47:57.574Z,1003.99
2022-12-13T13:48:57.564Z,1003.99
2022-12-13T13:50:01.781Z,1004.02
2022-12-13T13:50:58.565Z,1004.00
2022-12-13T13:52:26.715Z,1004.08
2022-12-13T13:52:58.531Z,1004.00
2022-12-13T13:53:57.518Z,1004.02
2022-12-13T13:54:57.504Z,1004.05
2022-12-13T13:56:01.816Z,1004.08
2022-12-13T13:56:57.501Z,1004.10
2022-12-13T13:58:09.250Z,1004.04
2022-12-13T13:58:58.465Z,1004.03
2022-12-13T13:59:57.453Z,1004.04
2022-12-13T14:00:57.452Z,1004.05
2022-12-13T14:02:01.367Z,1004.08
2022-12-13T14:02:57.452Z,1004.09
2022-12-13T14:03:57.445Z,1004.05
2022-12-13T14:04:57.398Z,1004.11
2022-12-13T14:05:57.385Z,1004.13
2022-12-13T14:07:00.647Z,1004.13
2022-12-13T14:07:57.383Z,1004.14
2022-12-13T14:08:57.358Z,1004.14
2022-12-13T14:09:57.338Z,1004.14
2022-12-13T14:10:57.318Z,1004.10
2022-12-13T14:11:57.325Z,1004.16
2022-12-13T14:12:57.350Z,1004.13
2022-12-13T14:13:57.293Z,1004.15
2022-12-13T14:15:01.415Z,1004.14
2022-12-13T14:15:57.422Z,1004.17
2022-12-13T14:16:57.264Z,1004.12
2022-12-13T14:17:57.241Z,1004.10
2022-12-13T14:18:57.264Z,1004.08
2022-12-13T14:19:57.290Z,1004.03
2022-12-13T14:20:57.207Z,1004.04
2022-12-13T14:21:57.205Z,1004.04
2022-12-13T14:22:57.290Z,1004.01
2022-12-13T14:23:57.204Z,1004.02
2022-12-13T14:24:57.177Z,1003.97
2022-12-13T14:25:57.144Z,1003.98
2022-12-13T14:26:57.153Z,1003.98
2022-12-13T14:27:57.138Z,1003.98
2022-12-13T14:28:57.128Z,1003.99
2022-12-13T14:29:58.153Z,1003.94
2022-12-13T14:30:57.877Z,1003.95
2022-12-13T14:31:57.151Z,1003.89
2022-12-13T14:32:57.088Z,1003.94
2022-12-13T14:33:57.074Z,1003.93
2022-12-13T14:34:57.059Z,1003.87
2022-12-13T14:35:57.045Z,1003.85
2022-12-13T14:36:57.046Z,1003.88
2022-12-13T14:37:57.107Z,1003.83
2022-12-13T14:38:57.030Z,1003.85
2022-12-13T14:39:57.023Z,1003.84
2022-12-13T14:40:56.981Z,1003.85
2022-12-13T14:41:57.345Z,1003.81
2022-12-13T14:42:56.985Z,1003.80
2022-12-13T14:43:56.943Z,1003.73
2022-12-13T14:44:56.964Z,1003.72
2022-12-13T14:45:57.782Z,1003.71
2022-12-13T14:46:57.010Z,1003.72
2022-12-13T14:47:56.937Z,1003.70
2022-12-13T14:48:56.889Z,1003.72
2022-12-13T14:49:56.899Z,1003.70
2022-12-13T14:50:56.885Z,1003.70
2022-12-13T14:51:56.858Z,1003.71
2022-12-13T14:52:56.861Z,1003.74
2022-12-13T14:53:56.855Z,1003.73
2022-12-13T14:54:57.906Z,1003.80
2022-12-13T14:55:56.846Z,1003.77
2022-12-13T14:56:56.799Z,1003.70
2022-12-13T14:57:56.803Z,1003.70
2022-12-13T14:58:56.795Z,1003.72
2022-12-13T14:59:56.782Z,1003.67
2022-12-13T15:00:56.825Z,1003.70
2022-12-13T15:01:56.743Z,1003.69
2022-12-13T15:02:56.744Z,1003.71
2022-12-13T15:03:59.573Z,1003.71
2022-12-13T15:04:56.721Z,1003.67
2022-12-13T15:05:56.705Z,1003.68
2022-12-13T15:06:56.685Z,1003.66
2022-12-13T15:07:56.678Z,1003.69
2022-12-13T15:08:56.681Z,1003.66
2022-12-13T15:09:56.674Z,1003.66
2022-12-13T15:10:56.664Z,1003.64
2022-12-13T15:12:01.386Z,1003.62
2022-12-13T15:12:57.628Z,1003.61
2022-12-13T15:13:56.623Z,1003.60
2022-12-13T15:14:56.620Z,1003.61
2022-12-13T15:15:56.662Z,1003.62
2022-12-13T15:16:56.575Z,1003.57
2022-12-13T15:17:56.577Z,1003.61
2022-12-13T15:18:56.557Z,1003.59
2022-12-13T15:19:57.630Z,1003.59
2022-12-13T15:20:56.540Z,1003.59
2022-12-13T15:22:01.700Z,1003.57
2022-12-13T15:22:57.539Z,1003.59
2022-12-13T15:23:56.502Z,1003.56
2022-12-13T15:24:56.516Z,1003.56
2022-12-13T15:25:56.498Z,1003.56
2022-12-13T15:26:56.460Z,1003.53
2022-12-13T15:27:56.484Z,1003.49
2022-12-13T15:28:56.436Z,1003.50
2022-12-13T15:29:56.447Z,1003.49
2022-12-13T15:30:56.441Z,1003.46
2022-12-13T15:31:56.481Z,1003.49
2022-12-13T15:32:56.454Z,1003.50
2022-12-13T15:34:01.150Z,1003.52
2022-12-13T15:34:57.368Z,1003.51
2022-12-13T15:35:56.399Z,1003.49
2022-12-13T15:36:56.361Z,1003.46
2022-12-13T15:37:56.351Z,1003.46
2022-12-13T15:38:56.357Z,1003.43
2022-12-13T15:39:56.333Z,1003.44
2022-12-13T15:40:56.310Z,1003.42
2022-12-13T15:41:56.329Z,1003.42
2022-12-13T15:42:56.277Z,1003.39
2022-12-13T15:43:56.293Z,1003.39
2022-12-13T15:44:56.257Z,1003.38
2022-12-13T15:45:56.308Z,1003.35
2022-12-13T15:46:56.337Z,1003.26
2022-12-13T15:47:56.240Z,1003.27
2022-12-13T15:48:56.217Z,1003.25
2022-12-13T15:49:56.209Z,1003.22
2022-12-13T15:50:56.201Z,1003.20
2022-12-13T15:51:56.213Z,1003.21
2022-12-13T15:52:56.181Z,1003.22
2022-12-13T15:53:56.160Z,1003.22
2022-12-13T15:54:56.163Z,1003.26
2022-12-13T15:55:56.149Z,1003.25
2022-12-13T15:56:56.153Z,1003.21
2022-12-13T15:57:56.115Z,1003.23
2022-12-13T15:58:56.103Z,1003.23
2022-12-13T15:59:56.114Z,1003.21
2022-12-13T16:00:56.118Z,1003.24
2022-12-13T16:01:58.443Z,1003.16
2022-12-13T16:02:56.112Z,1003.17
2022-12-13T16:03:56.132Z,1003.14
2022-12-13T16:04:56.044Z,1003.20
2022-12-13T16:05:56.025Z,1003.16
2022-12-13T16:06:56.007Z,1003.15
2022-12-13T16:07:56.782Z,1003.07
2022-12-13T16:08:55.988Z,1003.05
2022-12-13T16:09:55.993Z,1003.03
2022-12-13T16:10:56.002Z,1003.07
2022-12-13T16:11:55.972Z,1003.02
2022-12-13T16:12:59.168Z,1003.00
2022-12-13T16:13:58.422Z,1002.99
2022-12-13T16:15:00.663Z,1002.97
2022-12-13T16:16:00.325Z,1002.97
2022-12-13T16:16:56.925Z,1002.95
2022-12-13T16:17:56.085Z,1002.90
2022-12-13T16:18:55.906Z,1002.89
2022-12-13T16:19:55.931Z,1002.83
2022-12-13T16:20:55.851Z,1002.84
2022-12-13T16:21:55.843Z,1002.83
2022-12-13T16:22:59.848Z,1002.84
2022-12-13T16:23:55.836Z,1002.87
2022-12-13T16:24:55.821Z,1002.86
2022-12-13T16:25:55.803Z,1002.86
2022-12-13T16:26:55.797Z,1002.86
2022-12-13T16:27:56.330Z,1002.85
2022-12-13T16:28:55.782Z,1002.84
2022-12-13T16:29:55.769Z,1002.82
2022-12-13T16:30:55.737Z,1002.80
2022-12-13T16:32:01.115Z,1002.80
2022-12-13T16:33:18.121Z,1002.79
2022-12-13T16:33:56.737Z,1002.73
2022-12-13T16:34:55.716Z,1002.75
2022-12-13T16:35:55.705Z,1002.72
2022-12-13T16:36:55.687Z,1002.74
2022-12-13T16:37:59.168Z,1002.70
2022-12-13T16:38:55.664Z,1002.71
2022-12-13T16:39:55.661Z,1002.72
2022-12-13T16:40:55.660Z,1002.74
2022-12-13T16:41:55.664Z,1002.74
2022-12-13T16:42:55.618Z,1002.72
2022-12-13T16:43:55.599Z,1002.75
2022-12-13T16:45:17.907Z,1002.72
2022-12-13T16:45:56.680Z,1002.69
2022-12-13T16:47:12.886Z,1002.71
2022-12-13T16:47:56.615Z,1002.71
2022-12-13T16:48:55.551Z,1002.67
2022-12-13T16:49:55.543Z,1002.68
2022-12-13T16:50:57.668Z,1002.73
2022-12-13T16:51:55.525Z,1002.71
2022-12-13T16:52:55.495Z,1002.74
2022-12-13T16:53:55.497Z,1002.76
2022-12-13T16:54:55.487Z,1002.74
2022-12-13T16:55:58.646Z,1002.74
2022-12-13T16:56:55.463Z,1002.73
2022-12-13T16:57:55.475Z,1002.75
2022-12-13T16:58:55.430Z,1002.77
2022-12-13T16:59:55.430Z,1002.77
2022-12-13T17:00:58.899Z,1002.79
2022-12-13T17:01:55.398Z,1002.76
2022-12-13T17:02:55.393Z,1002.83
2022-12-13T17:03:55.428Z,1002.82
2022-12-13T17:04:55.454Z,1002.82
2022-12-13T17:05:58.740Z,1002.85
2022-12-13T17:06:55.669Z,1002.83
2022-12-13T17:07:55.330Z,1002.88
2022-12-13T17:08:55.323Z,1002.84
2022-12-13T17:09:55.394Z,1002.79
2022-12-13T17:10:58.193Z,1002.80
2022-12-13T17:11:55.312Z,1002.77
2022-12-13T17:12:55.279Z,1002.79
2022-12-13T17:13:55.297Z,1002.79
2022-12-13T17:14:55.277Z,1002.77
2022-12-13T17:15:58.985Z,1002.79
2022-12-13T17:16:55.345Z,1002.80
2022-12-13T17:17:55.235Z,1002.75
2022-12-13T17:18:55.676Z,1002.75
2022-12-13T17:19:55.265Z,1002.76
2022-12-13T17:20:58.433Z,1002.78
2022-12-13T17:21:55.216Z,1002.77
2022-12-13T17:22:55.171Z,1002.77
2022-12-13T17:23:55.148Z,1002.80
2022-12-13T17:24:55.140Z,1002.77
2022-12-13T17:25:58.194Z,1002.76
2022-12-13T17:26:55.400Z,1002.71
2022-12-13T17:27:55.116Z,1002.73
2022-12-13T17:28:55.088Z,1002.73
2022-12-13T17:29:55.091Z,1002.72
2022-12-13T17:30:55.335Z,1002.76
2022-12-13T17:31:55.056Z,1002.79
2022-12-13T17:32:55.065Z,1002.74
2022-12-13T17:33:55.033Z,1002.76
2022-12-13T17:34:55.032Z,1002.78
2022-12-13T17:35:55.051Z,1002.79
2022-12-13T17:36:55.190Z,1002.72
2022-12-13T17:37:55.021Z,1002.70
2022-12-13T17:38:54.981Z,1002.70
2022-12-13T17:39:54.979Z,1002.68
2022-12-13T17:40:55.073Z,1002.66
2022-12-13T17:41:55.805Z,1002.65
2022-12-13T17:42:54.949Z,1002.59
2022-12-13T17:43:54.955Z,1002.61
2022-12-13T17:44:54.920Z,1002.60
2022-12-13T17:45:54.948Z,1002.58
2022-12-13T17:46:55.630Z,1002.59
2022-12-13T17:47:54.897Z,1002.58
2022-12-13T17:48:54.887Z,1002.59
2022-12-13T17:49:54.855Z,1002.65
2022-12-13T17:50:54.840Z,1002.63
2022-12-13T17:51:54.903Z,1002.65
2022-12-13T17:52:54.830Z,1002.61
2022-12-13T17:53:54.835Z,1002.64
2022-12-13T17:54:54.812Z,1002.60
2022-12-13T17:55:54.801Z,1002.63
2022-12-13T17:56:54.791Z,1002.63
2022-12-13T17:57:57.459Z,1002.68
2022-12-13T17:58:55.778Z,1002.65
2022-12-13T17:59:54.751Z,1002.63
2022-12-13T18:00:54.728Z,1002.62
2022-12-13T18:01:54.825Z,1002.62
2022-12-13T18:02:54.928Z,1002.60
2022-12-13T18:03:54.751Z,1002.59
2022-12-13T18:04:54.681Z,1002.59
2022-12-13T18:05:54.676Z,1002.61
2022-12-13T18:06:54.660Z,1002.64
2022-12-13T18:07:54.676Z,1002.64
2022-12-13T18:08:54.637Z,1002.60
2022-12-13T18:09:54.646Z,1002.54
2022-12-13T18:11:15.701Z,1002.57
2022-12-13T18:11:55.622Z,1002.59
2022-12-13T18:12:54.609Z,1002.64
2022-12-13T18:13:55.376Z,1002.67
2022-12-13T18:14:54.598Z,1002.72
2022-12-13T18:15:54.602Z,1002.72
2022-12-13T18:16:54.567Z,1002.68
2022-12-13T18:18:11.392Z,1002.73
2022-12-13T18:18:55.898Z,1002.69
2022-12-13T18:19:54.563Z,1002.71
2022-12-13T18:20:54.515Z,1002.71
2022-12-13T18:21:54.503Z,1002.71
2022-12-13T18:22:54.481Z,1002.74
2022-12-13T18:23:55.155Z,1002.76
2022-12-13T18:24:54.484Z,1002.80
2022-12-13T18:25:54.462Z,1002.75
2022-12-13T18:26:54.437Z,1002.73
2022-12-13T18:27:59.121Z,1002.74
2022-12-13T18:28:55.416Z,1002.73
2022-12-13T18:29:55.507Z,1002.70
2022-12-13T18:30:54.445Z,1002.71
2022-12-13T18:31:54.395Z,1002.72
2022-12-13T18:32:54.366Z,1002.67
2022-12-13T18:33:54.374Z,1002.68
2022-12-13T18:34:54.599Z,1002.66
2022-12-13T18:35:54.384Z,1002.65
2022-12-13T18:36:54.335Z,1002.65
2022-12-13T18:37:54.316Z,1002.64
2022-12-13T18:38:54.318Z,1002.67
2022-12-13T18:39:54.889Z,1002.71
2022-12-13T18:40:54.310Z,1002.68
2022-12-13T18:41:54.270Z,1002.71
2022-12-13T18:42:54.257Z,1002.67
2022-12-13T18:43:54.261Z,1002.65
2022-12-13T18:44:54.959Z,1002.64
2022-12-13T18:45:54.402Z,1002.63
2022-12-13T18:46:54.268Z,1002.60
2022-12-13T18:47:54.206Z,1002.60
2022-12-13T18:48:54.188Z,1002.56
2022-12-13T18:49:54.977Z,1002.55
2022-12-13T18:50:54.180Z,1002.56
2022-12-13T18:51:54.157Z,1002.55
2022-12-13T18:52:54.161Z,1002.53
2022-12-13T18:53:54.143Z,1002.52
2022-12-13T18:54:54.860Z,1002.59
2022-12-13T18:55:54.178Z,1002.52
2022-12-13T18:56:54.099Z,1002.52
2022-12-13T18:57:54.099Z,1002.54
2022-12-13T18:58:54.093Z,1002.51
2022-12-13T18:59:57.637Z,1002.47
2022-12-13T19:00:54.071Z,1002.47
2022-12-13T19:01:54.125Z,1002.47
2022-12-13T19:02:54.074Z,1002.40
2022-12-13T19:03:54.018Z,1002.39
2022-12-13T19:04:55.618Z,1002.41
2022-12-13T19:05:53.999Z,1002.43
2022-12-13T19:06:54.389Z,1002.36
2022-12-13T19:07:53.974Z,1002.36
2022-12-13T19:08:53.969Z,1002.37
2022-12-13T19:09:54.725Z,1002.33
2022-12-13T19:10:53.946Z,1002.33
2022-12-13T19:11:53.978Z,1002.35
2022-12-13T19:12:53.952Z,1002.34